Time;durP1;ratioP1;P1;durP2;ratioP2;P2;SDS_P1;SDS_P2;PMS_P1;PMS_P2;Temp;Humidity;BMP_temperature;BMP_pressure;BME280_temperature;BME280_humidity;BME280_pressure;Samples;Min_cycle;Max_cycle;Signal;HPM_P1;HPM_P2
2021/08/27 00:00:32;;;;;;;6.20;1.90;;;14.90;99.90;;;;;;2071537;28;20026;-70
2021/08/27 00:01:33;;;;;;;4.03;1.45;;;14.90;99.90;;;;;;2072070;28;20060;-70
2021/08/27 00:02:34;;;;;;;5.32;1.85;;;14.90;99.90;;;;;;2072141;28;20026;-70
2021/08/27 00:03:34;;;;;;;8.23;1.88;;;14.90;99.90;;;;;;2072134;28;20034;-70
2021/08/27 00:04:35;;;;;;;8.88;1.70;;;14.90;99.90;;;;;;2072412;28;20036;-70
2021/08/27 00:05:35;;;;;;;5.43;1.90;;;14.90;99.90;;;;;;2073487;28;20525;-70
2021/08/27 00:06:36;;;;;;;6.85;1.42;;;14.90;99.90;;;;;;2072427;28;20057;-70
2021/08/27 00:07:37;;;;;;;3.28;1.25;;;14.90;99.90;;;;;;2072271;28;20110;-70
2021/08/27 00:08:38;;;;;;;4.65;1.60;;;14.90;99.90;;;;;;2072389;28;20032;-70
2021/08/27 00:09:38;;;;;;;3.20;1.30;;;14.80;99.90;;;;;;2072330;28;20488;-70
2021/08/27 00:10:39;;;;;;;5.47;1.80;;;14.90;99.90;;;;;;2072507;28;20422;-70
2021/08/27 00:11:39;;;;;;;4.88;1.65;;;14.80;99.90;;;;;;2071778;28;20029;-70
2021/08/27 00:12:40;;;;;;;5.97;1.70;;;14.90;99.90;;;;;;2072027;28;20029;-70
2021/08/27 00:13:41;;;;;;;4.43;1.73;;;14.80;99.90;;;;;;2072231;28;20034;-70
2021/08/27 00:14:42;;;;;;;5.47;1.90;;;14.90;99.90;;;;;;2072210;28;20624;-70
2021/08/27 00:15:42;;;;;;;6.25;1.83;;;14.90;99.90;;;;;;2071543;28;20367;-70
2021/08/27 00:16:43;;;;;;;4.43;1.58;;;14.80;99.90;;;;;;2071467;28;20109;-70
2021/08/27 00:17:43;;;;;;;5.85;1.90;;;14.80;99.90;;;;;;2066668;28;20029;-70
2021/08/27 00:18:44;;;;;;;7.03;1.88;;;14.90;99.90;;;;;;2071466;28;20057;-70
2021/08/27 00:19:44;;;;;;;4.18;1.52;;;14.80;99.90;;;;;;2072018;28;20485;-70
2021/08/27 00:20:45;;;;;;;3.90;1.70;;;14.80;99.90;;;;;;2072012;28;20048;-70
2021/08/27 00:21:46;;;;;;;4.63;1.73;;;14.80;99.90;;;;;;2074377;28;20447;-70
2021/08/27 00:22:46;;;;;;;3.97;1.50;;;14.80;99.90;;;;;;2076057;28;20064;-70
2021/08/27 00:23:47;;;;;;;5.20;2.15;;;14.80;99.90;;;;;;2072287;28;20034;-70
2021/08/27 00:24:47;;;;;;;3.88;1.75;;;14.80;99.90;;;;;;2072154;28;20030;-70
2021/08/27 00:25:48;;;;;;;8.13;1.80;;;14.80;99.90;;;;;;2072268;28;20040;-70
2021/08/27 00:26:48;;;;;;;4.15;1.70;;;14.80;99.90;;;;;;2072274;28;20443;-70
2021/08/27 00:27:49;;;;;;;5.75;1.58;;;14.80;99.90;;;;;;2071193;28;20038;-70
2021/08/27 00:28:49;;;;;;;5.90;1.73;;;14.70;99.90;;;;;;2071496;28;20104;-70
2021/08/27 00:29:50;;;;;;;4.65;1.58;;;14.70;99.90;;;;;;2063807;28;20049;-70
2021/08/27 00:30:51;;;;;;;4.43;1.55;;;14.70;99.90;;;;;;2067722;28;20080;-70
2021/08/27 00:31:51;;;;;;;7.20;2.10;;;14.70;99.90;;;;;;2072188;28;20065;-70
2021/08/27 00:32:52;;;;;;;6.13;1.60;;;14.70;99.90;;;;;;2071565;28;20064;-70
2021/08/27 00:33:53;;;;;;;8.23;2.25;;;14.70;99.90;;;;;;2071868;28;20418;-70
2021/08/27 00:34:53;;;;;;;4.47;1.50;;;14.70;99.90;;;;;;2072171;28;20060;-70
2021/08/27 00:35:54;;;;;;;5.47;1.48;;;14.70;99.90;;;;;;2071936;28;20446;-70
2021/08/27 00:36:55;;;;;;;5.05;1.80;;;14.70;99.90;;;;;;2072261;28;20076;-70
2021/08/27 00:37:55;;;;;;;8.27;2.10;;;14.60;99.90;;;;;;2074970;28;20026;-70
2021/08/27 00:38:56;;;;;;;4.63;1.42;;;14.60;99.90;;;;;;2072051;28;20378;-70
2021/08/27 00:39:56;;;;;;;3.90;1.08;;;14.60;99.90;;;;;;2072132;28;20136;-71
2021/08/27 00:40:57;;;;;;;4.10;1.42;;;14.60;99.90;;;;;;2071692;28;20079;-70
2021/08/27 00:41:58;;;;;;;6.40;2.17;;;14.60;99.90;;;;;;2072133;28;20037;-70
2021/08/27 00:42:59;;;;;;;5.10;1.50;;;14.60;99.90;;;;;;2071815;28;20640;-70
2021/08/27 00:43:59;;;;;;;5.90;2.05;;;14.60;99.90;;;;;;2072037;28;20355;-70
2021/08/27 00:45:00;;;;;;;3.60;1.60;;;14.60;99.90;;;;;;2071748;28;20022;-70
2021/08/27 00:46:00;;;;;;;6.82;1.98;;;14.60;99.90;;;;;;2072011;28;20029;-70
2021/08/27 00:47:02;;;;;;;4.75;1.95;;;14.50;99.90;;;;;;2072331;28;20014;-70
2021/08/27 00:48:02;;;;;;;2.67;1.23;;;14.50;99.90;;;;;;2072267;28;20508;-70
2021/08/27 00:49:03;;;;;;;2.85;1.50;;;14.50;99.90;;;;;;2071992;28;20775;-70
2021/08/27 00:50:05;;;;;;;3.13;1.40;;;14.50;99.90;;;;;;2071717;28;20030;-70
2021/08/27 00:51:06;;;;;;;3.30;1.58;;;14.50;99.90;;;;;;2072148;28;20022;-70
2021/08/27 00:52:08;;;;;;;3.55;1.95;;;14.50;99.90;;;;;;2071573;28;20033;-70
2021/08/27 00:53:09;;;;;;;6.95;1.90;;;14.50;99.90;;;;;;2071707;28;20029;-70
2021/08/27 00:54:11;;;;;;;7.20;1.50;;;14.50;99.90;;;;;;2072816;28;20033;-70
2021/08/27 00:55:11;;;;;;;5.95;2.05;;;14.50;99.90;;;;;;2072100;28;20033;-70
2021/08/27 00:56:13;;;;;;;4.85;1.65;;;14.40;99.90;;;;;;2071817;28;20034;-70
2021/08/27 00:57:14;;;;;;;9.25;2.13;;;14.50;99.90;;;;;;2072197;28;20010;-70
2021/08/27 00:58:14;;;;;;;4.10;1.23;;;14.50;99.90;;;;;;2072004;28;20482;-70
2021/08/27 00:59:15;;;;;;;4.35;1.83;;;14.50;99.90;;;;;;2071946;28;20045;-70
2021/08/27 01:00:16;;;;;;;5.78;1.85;;;14.50;99.90;;;;;;2071890;28;20022;-70
2021/08/27 01:01:17;;;;;;;5.90;2.05;;;14.50;99.90;;;;;;2072143;28;20030;-70
2021/08/27 01:02:17;;;;;;;3.67;1.35;;;14.40;99.90;;;;;;2071669;28;20022;-70
2021/08/27 01:03:19;;;;;;;4.25;1.40;;;14.40;99.90;;;;;;2071462;28;20022;-70
2021/08/27 01:04:19;;;;;;;5.63;1.60;;;14.40;99.90;;;;;;2071491;28;20022;-70
2021/08/27 01:05:21;;;;;;;7.18;2.10;;;14.50;99.90;;;;;;2071958;28;20030;-70
2021/08/27 01:06:33;;;;;;;4.57;1.50;;;14.40;99.90;;;;;;2071738;28;20021;-70
2021/08/27 01:07:48;;;;;;;4.93;1.67;;;14.40;99.90;;;;;;2065697;28;20034;-70
2021/08/27 01:09:24;;;;;;;1.50;1.20;;;14.40;99.90;;;;;;2068897;28;20093;-70
2021/08/27 01:10:29;;;;;;;5.15;1.92;;;14.30;99.90;;;;;;2056707;28;20026;-70
2021/08/27 01:11:41;;;;;;;3.38;1.27;;;14.40;99.90;;;;;;2071770;28;20057;-70
2021/08/27 01:12:46;;;;;;;5.32;1.60;;;14.30;99.90;;;;;;2071059;28;20105;-70
2021/08/27 01:13:57;;;;;;;3.45;1.58;;;14.30;99.90;;;;;;2071734;28;20029;-70
2021/08/27 01:15:05;;;;;;;1.73;1.40;;;14.30;99.90;;;;;;2071745;28;20018;-70
2021/08/27 01:16:27;;;;;;;5.10;1.50;;;14.30;99.90;;;;;;2071839;28;20033;-70
2021/08/27 01:17:49;;;;;;;3.97;1.80;;;14.30;99.90;;;;;;2072145;28;20022;-70
2021/08/27 01:18:52;;;;;;;6.60;1.58;;;14.30;99.90;;;;;;2069984;28;20367;-70
2021/08/27 01:20:13;;;;;;;4.93;1.75;;;14.30;99.90;;;;;;2070232;28;20462;-70
2021/08/27 01:21:54;;;;;;;6.13;1.80;;;14.30;99.90;;;;;;2068336;28;20022;-70
2021/08/27 01:23:14;;;;;;;4.85;1.45;;;14.20;99.90;;;;;;2071423;28;20018;-70
2021/08/27 01:24:17;;;;;;;8.20;1.77;;;14.20;99.90;;;;;;2071673;28;20056;-70
2021/08/27 01:25:21;;;;;;;6.18;1.80;;;14.20;99.90;;;;;;2071794;28;20037;-70
2021/08/27 01:26:28;;;;;;;3.85;1.80;;;14.20;99.90;;;;;;2072901;28;20029;-70
2021/08/27 01:27:29;;;;;;;5.22;1.90;;;14.30;99.90;;;;;;2071584;28;20044;-70
2021/08/27 01:28:32;;;;;;;5.18;1.77;;;14.20;99.90;;;;;;2071606;28;20029;-70
2021/08/27 01:29:35;;;;;;;7.47;1.90;;;14.20;99.90;;;;;;2071669;28;20056;-70
2021/08/27 01:31:15;;;;;;;3.67;1.67;;;14.20;99.90;;;;;;2071537;28;20022;-70
2021/08/27 01:32:35;;;;;;;5.45;1.38;;;14.30;99.90;;;;;;2055757;28;20034;-70
2021/08/27 01:33:45;;;;;;;6.22;1.60;;;14.20;99.90;;;;;;2065270;28;20033;-70
2021/08/27 01:34:49;;;;;;;4.30;1.25;;;14.20;99.90;;;;;;2071685;28;20033;-70
2021/08/27 01:36:00;;;;;;;5.13;1.60;;;14.20;99.90;;;;;;2070903;28;20110;-70
2021/08/27 01:37:09;;;;;;;8.75;1.80;;;14.20;99.90;;;;;;2071130;28;20022;-70
2021/08/27 01:38:10;;;;;;;4.93;1.50;;;14.20;99.90;;;;;;2071514;28;20036;-70
2021/08/27 01:39:15;;;;;;;5.65;2.10;;;14.30;99.90;;;;;;2070880;28;20025;-70
2021/08/27 01:40:18;;;;;;;7.55;2.33;;;14.30;99.90;;;;;;2066010;28;20029;-70
2021/08/27 01:41:19;;;;;;;4.93;1.58;;;14.30;99.90;;;;;;2070740;28;20756;-70
2021/08/27 01:42:24;;;;;;;6.72;2.10;;;14.30;99.90;;;;;;2068482;28;20018;-70
2021/08/27 01:43:26;;;;;;;7.22;1.90;;;14.30;99.90;;;;;;2071260;28;20542;-74
2021/08/27 01:44:28;;;;;;;8.40;2.05;;;14.30;99.90;;;;;;2071685;28;20046;-70
2021/08/27 01:45:29;;;;;;;5.55;1.80;;;14.20;99.90;;;;;;2071661;28;20034;-70
2021/08/27 01:46:35;;;;;;;3.85;1.40;;;14.30;99.90;;;;;;2071704;28;20030;-70
2021/08/27 01:47:38;;;;;;;4.22;1.70;;;14.30;99.90;;;;;;2070570;28;20030;-70
2021/08/27 01:48:39;;;;;;;3.85;1.55;;;14.30;99.90;;;;;;2071038;28;20053;-70
2021/08/27 01:49:40;;;;;;;3.72;1.50;;;14.20;99.90;;;;;;2071572;28;20482;-70
2021/08/27 01:50:42;;;;;;;4.45;1.95;;;14.20;99.90;;;;;;2071755;28;20445;-70
2021/08/27 01:51:47;;;;;;;6.00;1.90;;;14.20;99.90;;;;;;2071244;28;20021;-70
2021/08/27 01:52:49;;;;;;;2.17;1.20;;;14.20;99.90;;;;;;2071393;28;20112;-70
2021/08/27 01:53:51;;;;;;;6.13;1.40;;;14.20;99.90;;;;;;2074135;28;20551;-70
2021/08/27 01:54:52;;;;;;;5.68;2.08;;;14.30;99.90;;;;;;2078257;28;20108;-70
2021/08/27 01:55:58;;;;;;;4.75;2.08;;;14.20;99.90;;;;;;2070847;28;20022;-70
2021/08/27 01:56:59;;;;;;;9.27;2.20;;;14.20;99.90;;;;;;2071027;28;20100;-70
2021/08/27 01:58:04;;;;;;;5.90;1.83;;;14.20;99.90;;;;;;2071434;28;20049;-70
2021/08/27 01:59:07;;;;;;;4.78;1.80;;;14.20;99.90;;;;;;2071467;28;20160;-70
2021/08/27 02:00:09;;;;;;;6.97;1.70;;;14.20;99.90;;;;;;2071702;28;20461;-70
2021/08/27 02:01:10;;;;;;;4.28;2.03;;;14.20;99.90;;;;;;2071575;28;20449;-70
2021/08/27 02:02:13;;;;;;;4.13;1.80;;;14.20;99.90;;;;;;2071099;28;20076;-70
2021/08/27 02:03:15;;;;;;;5.22;1.88;;;14.20;99.90;;;;;;2071001;28;20078;-70
2021/08/27 02:04:17;;;;;;;9.05;2.08;;;14.20;99.90;;;;;;2071480;28;20075;-70
2021/08/27 02:05:19;;;;;;;3.85;1.60;;;14.20;99.90;;;;;;2071690;28;20128;-70
2021/08/27 02:06:21;;;;;;;4.57;1.70;;;14.20;99.90;;;;;;2071358;28;20033;-70
2021/08/27 02:07:22;;;;;;;4.82;1.58;;;14.20;99.90;;;;;;2072019;28;20034;-70
2021/08/27 02:08:23;;;;;;;7.93;2.08;;;14.20;99.90;;;;;;2073291;28;20514;-70
2021/08/27 02:09:24;;;;;;;12.90;2.20;;;14.10;99.90;;;;;;2070726;28;20482;-70
2021/08/27 02:10:26;;;;;;;5.05;1.98;;;14.20;99.90;;;;;;2070809;28;20038;-70
2021/08/27 02:11:28;;;;;;;6.13;1.85;;;14.10;99.90;;;;;;2067666;28;20917;-70
2021/08/27 02:12:29;;;;;;;4.10;1.65;;;14.10;99.90;;;;;;2071431;28;20433;-70
2021/08/27 02:13:30;;;;;;;6.15;1.75;;;14.10;99.90;;;;;;2071160;28;20030;-70
2021/08/27 02:14:31;;;;;;;4.18;1.95;;;14.10;99.90;;;;;;2071302;28;20099;-70
2021/08/27 02:15:32;;;;;;;3.20;1.80;;;14.10;99.90;;;;;;2071692;28;20433;-70
2021/08/27 02:16:33;;;;;;;6.10;2.00;;;14.10;99.90;;;;;;2071327;28;20061;-71
2021/08/27 02:17:34;;;;;;;14.63;2.40;;;14.10;99.90;;;;;;2071527;28;20026;-70
2021/08/27 02:18:35;;;;;;;4.22;1.58;;;14.10;99.90;;;;;;2071614;28;20160;-70
2021/08/27 02:19:36;;;;;;;4.65;1.55;;;14.10;99.90;;;;;;2071454;28;20029;-70
2021/08/27 02:20:37;;;;;;;3.80;1.60;;;14.10;99.90;;;;;;2070815;28;20027;-70
2021/08/27 02:21:41;;;;;;;6.07;1.75;;;14.10;99.90;;;;;;2075728;28;20559;-70
2021/08/27 02:22:47;;;;;;;3.33;1.30;;;14.10;99.90;;;;;;2076110;28;20022;-70
2021/08/27 02:23:50;;;;;;;3.47;1.40;;;14.10;99.90;;;;;;2071682;28;20048;-70
2021/08/27 02:24:59;;;;;;;4.95;1.55;;;14.10;99.90;;;;;;2071053;28;20354;-70
2021/08/27 02:26:02;;;;;;;3.67;1.50;;;14.10;99.90;;;;;;2071360;28;20034;-70
2021/08/27 02:27:06;;;;;;;4.57;1.80;;;14.10;99.90;;;;;;2071336;28;20076;-70
2021/08/27 02:28:07;;;;;;;7.90;1.83;;;14.10;99.90;;;;;;2071271;28;20030;-70
2021/08/27 02:29:08;;;;;;;5.43;1.63;;;14.10;99.90;;;;;;2071226;28;20034;-70
2021/08/27 02:30:10;;;;;;;5.88;1.60;;;14.10;99.90;;;;;;2071536;28;20018;-70
2021/08/27 02:31:12;;;;;;;4.93;1.73;;;14.10;99.90;;;;;;2071119;28;20030;-70
2021/08/27 02:32:13;;;;;;;5.90;1.60;;;14.10;99.90;;;;;;2071097;28;20046;-70
2021/08/27 02:33:15;;;;;;;7.28;1.90;;;14.10;99.90;;;;;;2070416;28;20022;-70
2021/08/27 02:34:18;;;;;;;5.53;1.70;;;14.10;99.90;;;;;;2070666;28;20405;-70
2021/08/27 02:35:19;;;;;;;7.82;1.80;;;14.10;99.90;;;;;;2072988;28;20049;-70
2021/08/27 02:36:21;;;;;;;9.32;2.28;;;14.10;99.90;;;;;;2071429;28;20022;-70
2021/08/27 02:37:23;;;;;;;4.85;1.70;;;14.10;99.90;;;;;;2071026;28;20092;-70
2021/08/27 02:38:28;;;;;;;6.82;1.83;;;14.10;99.90;;;;;;2071514;28;20096;-70
2021/08/27 02:39:29;;;;;;;7.80;1.92;;;14.10;99.90;;;;;;2071280;28;20026;-70
2021/08/27 02:40:30;;;;;;;5.78;2.05;;;14.10;99.90;;;;;;2071576;28;20200;-70
2021/08/27 02:41:30;;;;;;;4.70;1.67;;;14.10;99.90;;;;;;2077738;28;20029;-70
2021/08/27 02:42:31;;;;;;;5.38;1.48;;;14.20;99.90;;;;;;2075033;28;20044;-70
2021/08/27 02:43:32;;;;;;;4.35;1.42;;;14.10;99.90;;;;;;2072868;28;20034;-70
2021/08/27 02:44:33;;;;;;;4.57;1.92;;;14.10;99.90;;;;;;2073138;28;20064;-70
2021/08/27 02:45:33;;;;;;;5.30;1.88;;;14.20;99.90;;;;;;2072492;28;20064;-70
2021/08/27 02:46:34;;;;;;;3.83;1.80;;;14.20;99.90;;;;;;2072962;28;20042;-70
2021/08/27 02:47:35;;;;;;;4.15;1.65;;;14.20;99.90;;;;;;2072825;28;20026;-70
2021/08/27 02:48:36;;;;;;;4.43;2.13;;;14.20;99.90;;;;;;2074066;28;20065;-70
2021/08/27 02:49:37;;;;;;;5.22;2.05;;;14.20;99.90;;;;;;2080888;28;20026;-70
2021/08/27 02:50:46;;;;;;;5.65;2.13;;;14.20;99.90;;;;;;2075448;28;20026;-70
2021/08/27 02:52:18;;;;;;;3.83;1.65;;;14.10;99.90;;;;;;2072770;28;20028;-70
2021/08/27 02:53:23;;;;;;;6.18;1.75;;;14.20;99.90;;;;;;2071864;28;20064;-70
2021/08/27 02:54:26;;;;;;;3.20;1.60;;;14.10;99.90;;;;;;2072871;28;20026;-70
2021/08/27 02:55:36;;;;;;;4.13;1.55;;;14.20;99.90;;;;;;2072542;28;20038;-70
2021/08/27 02:56:41;;;;;;;4.78;1.80;;;14.20;99.90;;;;;;2072699;28;20037;-70
2021/08/27 02:58:05;;;;;;;2.60;1.40;;;14.20;99.90;;;;;;2073330;28;20053;-70
2021/08/27 02:59:11;;;;;;;1.77;1.10;;;14.20;99.90;;;;;;2073130;28;20485;-70
2021/08/27 03:00:12;;;;;;;3.80;1.60;;;14.10;99.90;;;;;;2073020;28;20030;-70
2021/08/27 03:01:24;;;;;;;5.15;1.67;;;14.10;99.90;;;;;;2078610;28;20029;-70
2021/08/27 03:02:27;;;;;;;3.88;1.55;;;14.20;99.90;;;;;;2072901;28;20033;-70
2021/08/27 03:03:31;;;;;;;4.35;1.80;;;14.10;99.90;;;;;;2075044;28;20076;-70
2021/08/27 03:04:57;;;;;;;5.65;1.80;;;14.20;99.90;;;;;;2073159;28;20045;-70
2021/08/27 03:06:06;;;;;;;3.20;1.67;;;14.10;99.90;;;;;;2073133;28;20029;-70
2021/08/27 03:07:11;;;;;;;9.05;2.50;;;14.20;99.90;;;;;;2072592;28;20022;-70
2021/08/27 03:08:18;;;;;;;4.70;1.85;;;14.10;99.90;;;;;;2072708;28;20022;-70
2021/08/27 03:09:19;;;;;;;4.05;1.92;;;14.20;99.90;;;;;;2072770;28;20029;-70
2021/08/27 03:10:37;;;;;;;5.95;1.90;;;14.20;99.90;;;;;;2072806;28;20541;-70
2021/08/27 03:12:02;;;;;;;5.03;1.85;;;14.20;99.90;;;;;;2072562;28;20112;-70
2021/08/27 03:13:09;;;;;;;5.00;2.17;;;14.20;99.90;;;;;;2072256;28;20022;-70
2021/08/27 03:14:21;;;;;;;4.55;1.88;;;14.20;99.90;;;;;;2072845;28;20029;-70
2021/08/27 03:15:27;;;;;;;7.70;2.28;;;14.20;99.90;;;;;;2073005;28;20030;-70
2021/08/27 03:16:29;;;;;;;6.22;2.25;;;14.20;99.90;;;;;;2072807;28;20033;-70
2021/08/27 03:17:37;;;;;;;5.10;1.98;;;14.20;99.90;;;;;;2072731;28;20049;-70
2021/08/27 03:18:43;;;;;;;8.68;2.22;;;14.20;99.90;;;;;;2075733;28;20470;-70
2021/08/27 03:19:59;;;;;;;4.03;2.03;;;14.30;99.90;;;;;;2069593;28;20530;-70
2021/08/27 03:21:10;;;;;;;9.18;2.15;;;14.30;99.90;;;;;;2072820;28;20109;-70
2021/08/27 03:22:21;;;;;;;4.00;1.83;;;14.30;99.90;;;;;;2072740;28;20097;-70
2021/08/27 03:23:22;;;;;;;5.00;2.08;;;14.30;99.90;;;;;;2072536;28;20494;-70
2021/08/27 03:24:31;;;;;;;11.68;2.38;;;14.30;99.90;;;;;;2072742;28;20432;-70
2021/08/27 03:25:35;;;;;;;5.45;2.10;;;14.30;99.90;;;;;;2072695;28;20025;-70
2021/08/27 03:26:36;;;;;;;6.05;2.22;;;14.30;99.90;;;;;;2072647;28;20390;-70
2021/08/27 03:27:42;;;;;;;5.50;2.33;;;14.30;99.90;;;;;;2072387;28;20041;-70
2021/08/27 03:28:50;;;;;;;3.97;2.08;;;14.40;99.90;;;;;;2070242;28;20037;-70
2021/08/27 03:29:56;;;;;;;5.65;2.33;;;14.40;99.90;;;;;;2065791;28;20030;-70
2021/08/27 03:30:57;;;;;;;8.35;2.35;;;14.40;99.90;;;;;;2072761;28;20487;-70
2021/08/27 03:31:58;;;;;;;8.02;2.53;;;14.40;99.90;;;;;;2072527;28;20038;-70
2021/08/27 03:33:02;;;;;;;5.07;2.10;;;14.40;99.90;;;;;;2072255;28;20040;-73
2021/08/27 03:34:04;;;;;;;5.13;2.20;;;14.40;99.90;;;;;;2072238;28;20036;-70
2021/08/27 03:35:05;;;;;;;5.70;2.20;;;14.50;99.90;;;;;;2072613;28;20025;-70
2021/08/27 03:36:06;;;;;;;8.52;2.33;;;14.40;99.90;;;;;;2072539;28;20022;-70
2021/08/27 03:37:08;;;;;;;8.85;2.30;;;14.50;99.90;;;;;;2072635;28;20572;-70
2021/08/27 03:38:10;;;;;;;6.10;2.10;;;14.50;99.90;;;;;;2075610;28;20080;-70
2021/08/27 03:39:11;;;;;;;9.27;2.30;;;14.50;99.90;;;;;;2072361;28;20190;-70
2021/08/27 03:40:13;;;;;;;6.43;2.22;;;14.50;99.90;;;;;;2072686;28;20100;-70
2021/08/27 03:41:14;;;;;;;11.27;2.58;;;14.60;99.90;;;;;;2064677;28;20032;-70
2021/08/27 03:42:17;;;;;;;7.07;2.03;;;14.50;99.90;;;;;;2067271;28;20018;-70
2021/08/27 03:43:19;;;;;;;6.05;2.10;;;14.60;99.90;;;;;;2072432;28;20026;-70
2021/08/27 03:44:21;;;;;;;4.15;1.65;;;14.60;99.90;;;;;;2072828;28;20087;-70
2021/08/27 03:45:23;;;;;;;3.88;2.40;;;14.60;99.90;;;;;;2077912;28;20021;-70
2021/08/27 03:46:24;;;;;;;8.50;2.50;;;14.60;99.90;;;;;;2071906;28;20564;-70
2021/08/27 03:47:26;;;;;;;8.48;2.00;;;14.60;99.90;;;;;;2072685;28;20029;-70
2021/08/27 03:48:29;;;;;;;4.50;1.55;;;14.60;99.90;;;;;;2072814;28;20036;-70
2021/08/27 03:49:30;;;;;;;5.63;2.42;;;14.60;99.90;;;;;;2072445;28;20029;-70
2021/08/27 03:50:30;;;;;;;5.53;1.90;;;14.60;99.90;;;;;;2072431;28;20510;-70
2021/08/27 03:51:31;;;;;;;4.65;2.20;;;14.60;99.90;;;;;;2072540;28;20044;-70
2021/08/27 03:52:32;;;;;;;6.43;2.30;;;14.60;99.90;;;;;;2071708;28;20033;-70
2021/08/27 03:53:35;;;;;;;5.47;1.88;;;14.70;99.90;;;;;;2071531;28;20030;-71
2021/08/27 03:54:36;;;;;;;5.45;2.22;;;14.70;99.90;;;;;;2072349;28;20048;-70
2021/08/27 03:55:37;;;;;;;7.15;2.63;;;14.70;99.90;;;;;;2072230;28;20033;-70
2021/08/27 03:56:38;;;;;;;7.03;2.28;;;14.70;99.90;;;;;;2072276;28;20022;-70
2021/08/27 03:57:39;;;;;;;4.95;2.00;;;14.70;99.90;;;;;;2077765;28;20025;-70
2021/08/27 03:58:41;;;;;;;4.47;1.95;;;14.70;99.90;;;;;;2075009;28;20496;-70
2021/08/27 03:59:44;;;;;;;8.02;2.53;;;14.70;99.90;;;;;;2071851;28;20076;-70
2021/08/27 04:00:46;;;;;;;9.50;2.05;;;14.70;99.90;;;;;;2072104;28;20034;-70
2021/08/27 04:01:47;;;;;;;5.95;2.20;;;14.70;99.90;;;;;;2072227;28;20561;-70
2021/08/27 04:02:52;;;;;;;7.18;2.30;;;14.70;99.90;;;;;;2072038;28;20478;-70
2021/08/27 04:03:53;;;;;;;7.10;2.40;;;14.70;99.90;;;;;;2072671;28;20537;-70
2021/08/27 04:05:15;;;;;;;4.65;1.98;;;14.70;99.90;;;;;;2072207;28;20701;-70
2021/08/27 04:06:16;;;;;;;11.48;2.45;;;14.70;99.90;;;;;;2072390;28;20030;-70
2021/08/27 04:07:18;;;;;;;6.47;2.13;;;14.70;99.90;;;;;;2072460;28;20524;-70
2021/08/27 04:08:18;;;;;;;8.25;2.58;;;14.70;99.90;;;;;;2072458;28;20021;-70
2021/08/27 04:09:19;;;;;;;4.82;1.65;;;14.70;99.90;;;;;;2072150;28;20036;-70
2021/08/27 04:10:21;;;;;;;4.97;1.98;;;14.70;99.90;;;;;;2072404;28;20363;-70
2021/08/27 04:11:21;;;;;;;4.88;2.38;;;14.70;99.90;;;;;;2073059;28;20042;-70
2021/08/27 04:12:22;;;;;;;7.80;2.55;;;14.70;99.90;;;;;;2072497;28;20029;-70
2021/08/27 04:13:22;;;;;;;11.05;2.50;;;14.70;99.90;;;;;;2071698;28;20076;-70
2021/08/27 04:14:23;;;;;;;6.45;2.25;;;14.70;99.90;;;;;;2072243;28;20069;-70
2021/08/27 04:15:23;;;;;;;6.53;2.28;;;14.70;99.90;;;;;;2072054;28;20025;-70
2021/08/27 04:16:24;;;;;;;6.45;2.33;;;14.80;99.90;;;;;;2072391;28;20042;-70
2021/08/27 04:17:25;;;;;;;5.18;2.08;;;14.70;99.90;;;;;;2071914;28;20540;-70
2021/08/27 04:18:26;;;;;;;7.18;2.55;;;14.70;99.90;;;;;;2072463;28;20081;-70
2021/08/27 04:19:26;;;;;;;7.75;1.67;;;14.70;99.90;;;;;;2072496;28;20110;-70
2021/08/27 04:20:27;;;;;;;6.47;2.30;;;14.70;99.90;;;;;;2072095;28;20034;-70
2021/08/27 04:21:27;;;;;;;5.13;1.98;;;14.70;99.90;;;;;;2071823;28;20026;-72
2021/08/27 04:22:28;;;;;;;6.38;2.22;;;14.70;99.90;;;;;;2072201;28;20022;-70
2021/08/27 04:23:29;;;;;;;6.70;2.70;;;14.70;99.90;;;;;;2071842;28;20041;-70
2021/08/27 04:24:29;;;;;;;5.75;2.15;;;14.70;99.90;;;;;;2071974;28;20030;-70
2021/08/27 04:25:30;;;;;;;4.72;2.22;;;14.70;99.90;;;;;;2064084;28;20318;-70
2021/08/27 04:26:31;;;;;;;6.55;2.33;;;14.70;99.90;;;;;;2072173;28;20033;-70
2021/08/27 04:27:31;;;;;;;8.73;2.45;;;14.70;99.90;;;;;;2071874;28;20116;-70
2021/08/27 04:28:32;;;;;;;5.75;2.17;;;14.70;99.90;;;;;;2072361;28;20075;-70
2021/08/27 04:29:32;;;;;;;6.90;2.63;;;14.70;99.90;;;;;;2072074;28;20056;-70
2021/08/27 04:30:34;;;;;;;5.07;2.22;;;14.70;99.90;;;;;;2072380;28;20036;-70
2021/08/27 04:31:34;;;;;;;9.15;2.78;;;14.80;99.90;;;;;;2071997;28;20022;-70
2021/08/27 04:32:35;;;;;;;5.15;2.30;;;14.80;99.90;;;;;;2071642;28;20109;-70
2021/08/27 04:33:35;;;;;;;6.88;2.40;;;14.80;99.90;;;;;;2072143;28;20100;-70
2021/08/27 04:34:36;;;;;;;7.38;2.53;;;14.80;99.90;;;;;;2071890;28;20029;-70
2021/08/27 04:35:36;;;;;;;7.20;2.15;;;14.80;99.90;;;;;;2072016;28;20277;-70
2021/08/27 04:36:37;;;;;;;7.30;2.30;;;14.80;99.90;;;;;;2072102;28;20026;-70
2021/08/27 04:37:38;;;;;;;3.60;1.92;;;14.80;99.90;;;;;;2072059;28;20084;-70
2021/08/27 04:38:38;;;;;;;3.53;2.00;;;14.90;99.90;;;;;;2074228;28;20049;-71
2021/08/27 04:39:39;;;;;;;5.70;2.13;;;14.90;99.90;;;;;;2072051;28;20081;-70
2021/08/27 04:40:40;;;;;;;8.07;2.47;;;14.90;99.90;;;;;;2071959;28;20113;-70
2021/08/27 04:41:40;;;;;;;5.53;2.13;;;14.90;99.90;;;;;;2071792;28;20021;-70
2021/08/27 04:42:41;;;;;;;7.18;2.13;;;14.90;99.90;;;;;;2071725;28;20052;-70
2021/08/27 04:43:41;;;;;;;6.70;2.20;;;14.90;99.90;;;;;;2071970;28;20045;-70
2021/08/27 04:44:42;;;;;;;11.98;2.60;;;14.90;99.90;;;;;;2071992;28;20028;-70
2021/08/27 04:45:43;;;;;;;9.05;2.42;;;14.90;99.90;;;;;;2072367;28;20040;-70
2021/08/27 04:46:43;;;;;;;6.57;2.80;;;14.90;99.90;;;;;;2071983;28;20033;-70
2021/08/27 04:47:44;;;;;;;9.38;2.63;;;14.90;99.90;;;;;;2072123;28;20029;-70
2021/08/27 04:48:45;;;;;;;5.22;2.20;;;14.90;99.90;;;;;;2071813;28;20030;-70
2021/08/27 04:49:46;;;;;;;7.40;2.83;;;14.90;99.90;;;;;;2072085;28;20026;-70
2021/08/27 04:50:46;;;;;;;6.80;2.17;;;14.90;99.90;;;;;;2071654;28;20034;-70
2021/08/27 04:51:47;;;;;;;6.60;2.50;;;14.90;99.90;;;;;;2071907;28;20038;-70
2021/08/27 04:52:48;;;;;;;10.20;2.88;;;15.00;99.90;;;;;;2078395;28;20432;-70
2021/08/27 04:53:48;;;;;;;6.45;2.60;;;15.00;99.90;;;;;;2074691;28;20030;-70
2021/08/27 04:54:49;;;;;;;6.40;2.47;;;15.00;99.90;;;;;;2071403;28;20030;-70
2021/08/27 04:55:49;;;;;;;8.10;2.35;;;15.00;99.90;;;;;;2071975;28;20037;-70
2021/08/27 04:56:50;;;;;;;8.50;2.42;;;15.00;99.90;;;;;;2071704;28;20055;-70
2021/08/27 04:57:50;;;;;;;5.78;2.33;;;15.00;99.90;;;;;;2072064;28;20022;-70
2021/08/27 04:58:52;;;;;;;5.38;2.03;;;14.90;99.90;;;;;;2071869;28;20014;-70
2021/08/27 04:59:52;;;;;;;10.65;3.03;;;15.00;99.90;;;;;;2072190;28;20093;-70
2021/08/27 05:00:54;;;;;;;9.18;2.42;;;15.00;99.90;;;;;;2072144;28;20033;-70
2021/08/27 05:01:54;;;;;;;6.65;2.65;;;15.00;99.90;;;;;;2071724;28;20771;-70
2021/08/27 05:02:55;;;;;;;5.68;2.28;;;15.00;99.90;;;;;;2071321;28;20085;-70
2021/08/27 05:03:55;;;;;;;4.93;2.17;;;15.00;99.90;;;;;;2071976;28;20030;-70
2021/08/27 05:04:56;;;;;;;5.13;2.42;;;15.00;99.90;;;;;;2071472;28;20033;-70
2021/08/27 05:05:56;;;;;;;8.05;2.53;;;15.00;99.90;;;;;;2073908;28;20173;-70
2021/08/27 05:06:57;;;;;;;6.10;2.45;;;15.00;99.90;;;;;;2072493;28;20371;-70
2021/08/27 05:07:57;;;;;;;6.35;2.55;;;15.00;99.90;;;;;;2071737;28;20505;-70
2021/08/27 05:08:58;;;;;;;8.38;2.58;;;15.00;99.90;;;;;;2072004;28;20036;-70
2021/08/27 05:09:58;;;;;;;8.00;2.42;;;15.00;99.90;;;;;;2071665;28;20073;-70
2021/08/27 05:10:59;;;;;;;7.65;2.75;;;15.00;99.90;;;;;;2072201;28;20029;-70
2021/08/27 05:12:00;;;;;;;5.07;2.28;;;15.00;99.90;;;;;;2071714;28;20057;-70
2021/08/27 05:13:01;;;;;;;7.18;2.72;;;15.00;99.90;;;;;;2071467;28;20030;-70
2021/08/27 05:14:01;;;;;;;6.53;2.35;;;15.10;99.90;;;;;;2071577;28;20360;-70
2021/08/27 05:15:03;;;;;;;4.35;2.33;;;15.10;99.90;;;;;;2071893;28;20025;-70
2021/08/27 05:16:04;;;;;;;8.77;2.65;;;15.10;99.90;;;;;;2071704;28;20379;-70
2021/08/27 05:17:04;;;;;;;7.45;2.15;;;15.10;99.90;;;;;;2071915;28;20049;-70
2021/08/27 05:18:05;;;;;;;8.25;3.00;;;15.10;99.90;;;;;;2071781;28;20056;-70
2021/08/27 05:19:06;;;;;;;7.15;2.38;;;15.10;99.90;;;;;;2071870;28;20401;-70
2021/08/27 05:20:07;;;;;;;5.95;2.60;;;15.10;99.90;;;;;;2077408;28;20030;-70
2021/08/27 05:21:08;;;;;;;6.03;2.15;;;15.10;99.90;;;;;;2069073;28;20045;-70
2021/08/27 05:22:08;;;;;;;6.78;2.95;;;15.10;99.90;;;;;;2071337;28;20101;-70
2021/08/27 05:23:09;;;;;;;9.40;2.45;;;15.10;99.90;;;;;;2071634;28;20061;-70
2021/08/27 05:24:09;;;;;;;6.88;2.63;;;15.10;99.90;;;;;;2071640;28;20037;-70
2021/08/27 05:25:10;;;;;;;9.25;2.42;;;15.10;99.90;;;;;;2072139;28;20493;-70
2021/08/27 05:26:11;;;;;;;7.07;2.60;;;15.10;99.90;;;;;;2071362;28;20109;-70
2021/08/27 05:27:12;;;;;;;10.85;2.72;;;15.10;99.90;;;;;;2071894;28;20021;-70
2021/08/27 05:28:13;;;;;;;6.97;2.22;;;15.10;99.90;;;;;;2071308;28;20434;-70